Time;durP1;ratioP1;P1;durP2;ratioP2;P2;SDS_P1;SDS_P2;PMS_P1;PMS_P2;Temp;Humidity;BMP_temperature;BMP_pressure;BME280_temperature;BME280_humidity;BME280_pressure;Samples;Min_cycle;Max_cycle;Signal;HPM_P1;HPM_P2
2023/08/18 04:45:11;;;;;;;14.10;7.97;;;;;;;;;;6107201;23;20458;31
2023/08/18 04:47:37;;;;;;;10.93;7.47;;;;;;;;;;4955551;28;20462;-69
2023/08/18 04:50:05;;;;;;;12.37;8.00;;;;;;;;;;4956745;29;20463;-69
2023/08/18 04:52:31;;;;;;;17.77;8.50;;;;;;;;;;4956725;29;20416;-69
2023/08/18 04:54:57;;;;;;;16.40;8.50;;;;;;;;;;4957026;29;20961;-69
2023/08/18 04:57:23;;;;;;;14.17;8.87;;;;;;;;;;4974392;28;20562;-69
2023/08/18 04:59:49;;;;;;;15.80;8.07;;;;;;;;;;4976217;28;20416;-69
2023/08/18 05:02:15;;;;;;;14.07;7.87;;;;;;;;;;4976007;28;20412;-68
2023/08/18 05:04:41;;;;;;;15.80;7.63;;;;;;;;;;4975944;28;20423;-69
2023/08/18 05:07:07;;;;;;;15.10;7.10;;;;;;;;;;4975794;28;20918;-68
2023/08/18 05:09:34;;;;;;;14.13;7.60;;;;;;;;;;4975684;28;20419;-69
2023/08/18 05:12:00;;;;;;;10.40;6.70;;;;;;;;;;4975725;28;20416;-69
2023/08/18 05:14:26;;;;;;;11.80;7.50;;;;;;;;;;4975843;28;20784;-69
2023/08/18 05:16:52;;;;;;;15.97;6.70;;;;;;;;;;4975531;28;20467;-69
2023/08/18 05:19:18;;;;;;;12.40;7.33;;;;;;;;;;4975752;28;20416;-69
2023/08/18 05:21:44;;;;;;;14.00;7.00;;;;;;;;;;4975834;28;20419;-69
2023/08/18 05:24:10;;;;;;;11.60;6.60;;;;;;;;;;4975751;28;20451;-69
2023/08/18 05:26:36;;;;;;;11.80;7.23;;;;;;;;;;4975510;28;20440;-69
2023/08/18 05:29:02;;;;;;;23.20;8.63;;;;;;;;;;4975387;28;20423;-67
2023/08/18 05:31:28;;;;;;;12.77;6.00;;;;;;;;;;4973346;28;20419;-68
2023/08/18 05:33:54;;;;;;;16.33;6.60;;;;;;;;;;4956321;28;20417;-70
2023/08/18 05:36:19;;;;;;;12.70;6.03;;;;;;;;;;4956431;28;20496;-72
2023/08/18 05:38:46;;;;;;;12.60;5.90;;;;;;;;;;4955429;28;20954;-75
2023/08/18 05:41:13;;;;;;;8.07;5.67;;;;;;;;;;4974568;28;20522;-74
2023/08/18 05:43:40;;;;;;;9.10;5.30;;;;;;;;;;4975789;28;20416;-73
2023/08/18 05:46:06;;;;;;;18.03;5.40;;;;;;;;;;4974587;28;20546;-73
2023/08/18 05:48:32;;;;;;;15.37;6.87;;;;;;;;;;4974809;28;20419;-74
2023/08/18 05:50:58;;;;;;;13.80;6.53;;;;;;;;;;4974918;28;20423;-73
2023/08/18 05:53:24;;;;;;;14.27;6.77;;;;;;;;;;4974960;28;20506;-73
2023/08/18 05:55:52;;;;;;;24.27;6.93;;;;;;;;;;4975171;28;21040;-73
2023/08/18 05:58:18;;;;;;;16.93;7.27;;;;;;;;;;4970156;28;20478;-73
2023/08/18 06:00:44;;;;;;;13.83;6.80;;;;;;;;;;4955556;29;20916;-73
2023/08/18 06:03:10;;;;;;;14.63;6.40;;;;;;;;;;4973549;28;21118;-72
2023/08/18 06:05:36;;;;;;;8.73;5.60;;;;;;;;;;4973695;28;20428;-73
2023/08/18 06:08:02;;;;;;;8.87;5.90;;;;;;;;;;4975319;28;21033;-73
2023/08/18 06:10:28;;;;;;;19.17;7.40;;;;;;;;;;4975478;28;20416;-72
2023/08/18 06:12:54;;;;;;;10.40;5.40;;;;;;;;;;4975244;28;20420;-74
2023/08/18 06:15:21;;;;;;;9.27;7.10;;;;;;;;;;4973368;28;20408;-71
2023/08/18 06:17:50;;;;;;;9.43;6.17;;;;;;;;;;4974128;28;20514;-73
2023/08/18 06:20:16;;;;;;;10.23;5.03;;;;;;;;;;4974502;28;20463;-72
2023/08/18 06:22:42;;;;;;;18.73;5.57;;;;;;;;;;4975327;28;20466;-72
2023/08/18 06:25:09;;;;;;;8.20;5.27;;;;;;;;;;4974987;28;20901;-74
2023/08/18 06:27:35;;;;;;;10.30;4.93;;;;;;;;;;4975076;28;20771;-73
2023/08/18 06:30:01;;;;;;;13.60;5.80;;;;;;;;;;4974840;28;20415;-71
2023/08/18 06:32:27;;;;;;;8.70;5.00;;;;;;;;;;4974754;28;20427;-71
2023/08/18 06:34:53;;;;;;;12.00;4.80;;;;;;;;;;4975560;28;20815;-71
2023/08/18 06:37:19;;;;;;;13.13;4.97;;;;;;;;;;4975187;28;20550;-71
2023/08/18 06:39:46;;;;;;;7.70;4.90;;;;;;;;;;4974355;28;20483;-71
2023/08/18 06:42:12;;;;;;;8.40;5.30;;;;;;;;;;4973718;28;20415;-71
2023/08/18 06:44:38;;;;;;;10.87;4.87;;;;;;;;;;4974768;28;20510;-71
2023/08/18 06:47:04;;;;;;;6.33;4.53;;;;;;;;;;4974216;28;20919;-71
2023/08/18 06:49:30;;;;;;;6.10;5.03;;;;;;;;;;4973887;28;20433;-71
2023/08/18 06:51:56;;;;;;;10.10;5.67;;;;;;;;;;4975300;28;20491;-73
2023/08/18 06:54:22;;;;;;;11.70;4.40;;;;;;;;;;4974767;28;20514;-72
2023/08/18 06:56:48;;;;;;;11.60;4.50;;;;;;;;;;4973716;28;20470;-72
2023/08/18 06:59:14;;;;;;;5.73;4.07;;;;;;;;;;4973760;28;20408;-74
2023/08/18 07:01:41;;;;;;;11.33;5.87;;;;;;;;;;4973961;28;20435;-71
2023/08/18 07:04:08;;;;;;;9.50;5.17;;;;;;;;;;4982400;28;20412;-74
2023/08/18 07:06:34;;;;;;;11.80;5.17;;;;;;;;;;4993436;28;20471;-72
2023/08/18 07:09:00;;;;;;;9.50;4.33;;;;;;;;;;4990234;28;20456;-72
2023/08/18 07:11:26;;;;;;;10.70;5.00;;;;;;;;;;4989956;28;20447;-71
2023/08/18 07:13:52;;;;;;;13.07;4.83;;;;;;;;;;4975871;28;20448;-73
2023/08/18 07:16:18;;;;;;;9.67;4.37;;;;;;;;;;4978261;28;20451;-73
2023/08/18 07:18:44;;;;;;;7.73;4.07;;;;;;;;;;4977137;28;20525;-73
2023/08/18 07:21:10;;;;;;;10.70;4.40;;;;;;;;;;4976371;28;20483;-73
2023/08/18 07:23:36;;;;;;;8.93;4.83;;;;;;;;;;4975108;28;20415;-72
2023/08/18 07:26:03;;;;;;;6.03;3.90;;;;;;;;;;4974262;28;20985;-72
2023/08/18 07:28:29;;;;;;;8.73;4.27;;;;;;;;;;4973597;28;20474;-72
2023/08/18 07:30:55;;;;;;;6.30;3.60;;;;;;;;;;4973923;28;20423;-72
2023/08/18 07:33:21;;;;;;;5.93;4.13;;;;;;;;;;4973606;28;20416;-72
2023/08/18 07:35:47;;;;;;;7.83;4.20;;;;;;;;;;4973809;28;20530;-72
2023/08/18 07:38:13;;;;;;;8.23;4.97;;;;;;;;;;4972976;28;20495;-72
2023/08/18 07:40:42;;;;;;;8.83;5.30;;;;;;;;;;4973677;28;20408;-73
2023/08/18 07:43:08;;;;;;;5.90;4.40;;;;;;;;;;4973297;28;20684;-72
2023/08/18 07:45:34;;;;;;;9.10;4.17;;;;;;;;;;4974340;28;20511;-71
2023/08/18 07:48:00;;;;;;;4.30;3.17;;;;;;;;;;4973761;28;20474;-71
2023/08/18 07:50:26;;;;;;;9.07;4.40;;;;;;;;;;4974265;28;20419;-72
2023/08/18 07:52:52;;;;;;;9.33;4.60;;;;;;;;;;4974056;28;20424;-71
2023/08/18 07:55:21;;;;;;;11.60;3.83;;;;;;;;;;4978307;28;20419;-72
2023/08/18 07:57:47;;;;;;;6.77;4.07;;;;;;;;;;4977679;28;20469;-72
2023/08/18 08:00:16;;;;;;;6.17;3.77;;;;;;;;;;4977677;28;20517;-73
2023/08/18 08:02:42;;;;;;;8.33;4.47;;;;;;;;;;4977655;28;20443;-72
2023/08/18 08:05:09;;;;;;;6.33;3.90;;;;;;;;;;4977335;28;20499;-74
2023/08/18 08:07:35;;;;;;;6.10;4.17;;;;;;;;;;4978204;28;20458;-74
2023/08/18 08:10:04;;;;;;;12.30;4.87;;;;;;;;;;4977174;28;20466;-72
2023/08/18 08:12:31;;;;;;;9.30;4.70;;;;;;;;;;4976955;28;20436;-71
2023/08/18 08:14:57;;;;;;;7.80;4.30;;;;;;;;;;4977265;28;20432;-72
2023/08/18 08:17:23;;;;;;;11.73;3.43;;;;;;;;;;4976555;28;20498;-72
2023/08/18 08:19:50;;;;;;;11.50;4.73;;;;;;;;;;4976649;28;20752;-72
2023/08/18 08:22:19;;;;;;;6.80;4.30;;;;;;;;;;4977306;28;20443;-71
2023/08/18 08:24:45;;;;;;;12.50;4.43;;;;;;;;;;4977333;28;20715;-73
2023/08/18 08:27:11;;;;;;;7.00;4.63;;;;;;;;;;4977135;28;20436;-71
2023/08/18 08:29:37;;;;;;;7.87;4.43;;;;;;;;;;4977278;28;20423;-71
2023/08/18 08:32:03;;;;;;;8.33;4.80;;;;;;;;;;4977307;28;20777;-71
2023/08/18 08:34:29;;;;;;;6.60;3.97;;;;;;;;;;4977513;28;20768;-71
2023/08/18 08:36:55;;;;;;;9.70;4.20;;;;;;;;;;4976782;28;20447;-72
2023/08/18 08:39:21;;;;;;;18.47;4.50;;;;;;;;;;4976713;28;20412;-72
2023/08/18 08:41:46;;;;;;;6.13;3.90;;;;;;;;;;4975289;28;20426;-71
2023/08/18 08:44:12;;;;;;;6.60;3.93;;;;;;;;;;4976538;28;20411;-72
2023/08/18 08:46:40;;;;;;;6.10;3.60;;;;;;;;;;4974926;28;20454;-74
2023/08/18 08:49:06;;;;;;;6.27;3.33;;;;;;;;;;4976065;28;20444;-71
2023/08/18 08:51:36;;;;;;;7.83;3.60;;;;;;;;;;4975052;28;20423;-73
2023/08/18 08:54:03;;;;;;;4.87;3.20;;;;;;;;;;4977246;28;20757;-72
2023/08/18 08:56:31;;;;;;;10.20;3.87;;;;;;;;;;4976696;28;20419;-71
2023/08/18 08:58:57;;;;;;;8.43;3.60;;;;;;;;;;4975906;28;20456;-72
2023/08/18 09:01:23;;;;;;;6.23;3.60;;;;;;;;;;4976372;28;20412;-71
2023/08/18 09:03:50;;;;;;;4.97;3.20;;;;;;;;;;4974970;28;20424;-72
2023/08/18 09:06:16;;;;;;;11.53;3.30;;;;;;;;;;4975802;28;20489;-71
2023/08/18 09:08:42;;;;;;;7.00;3.70;;;;;;;;;;4976179;28;20566;-71
2023/08/18 09:11:08;;;;;;;6.10;3.30;;;;;;;;;;4976781;28;20438;-72
2023/08/18 09:13:35;;;;;;;5.33;2.73;;;;;;;;;;4975506;28;20424;-72
2023/08/18 09:16:04;;;;;;;13.70;4.20;;;;;;;;;;4975594;28;20427;-71
2023/08/18 09:18:32;;;;;;;7.33;3.70;;;;;;;;;;4975000;28;20467;-73
2023/08/18 09:21:00;;;;;;;6.10;3.50;;;;;;;;;;4975209;28;20415;-72
2023/08/18 09:23:27;;;;;;;10.77;3.30;;;;;;;;;;4975306;28;20408;-72
2023/08/18 09:25:53;;;;;;;4.93;3.50;;;;;;;;;;4975375;28;20838;-74
2023/08/18 09:28:19;;;;;;;6.47;3.30;;;;;;;;;;4975405;28;20444;-71
2023/08/18 09:30:45;;;;;;;11.87;3.20;;;;;;;;;;4975301;28;20446;-71
2023/08/18 09:33:11;;;;;;;4.93;3.20;;;;;;;;;;4975151;28;20422;-72
2023/08/18 09:35:36;;;;;;;13.33;3.40;;;;;;;;;;4975388;28;20436;-71
2023/08/18 09:38:03;;;;;;;6.07;2.90;;;;;;;;;;4975408;28;20472;-72
2023/08/18 09:40:29;;;;;;;6.53;3.57;;;;;;;;;;4975718;28;20494;-72
2023/08/18 09:42:55;;;;;;;6.07;2.87;;;;;;;;;;4976115;28;20408;-71
2023/08/18 09:45:28;;;;;;;13.70;4.07;;;;;;;;;;4975511;28;20410;-72
2023/08/18 09:47:55;;;;;;;5.10;3.07;;;;;;;;;;4975559;28;20423;-71
2023/08/18 09:50:24;;;;;;;8.13;3.47;;;;;;;;;;4975699;28;20408;-74
2023/08/18 09:52:52;;;;;;;5.70;3.07;;;;;;;;;;4975326;28;20420;-71
2023/08/18 09:55:20;;;;;;;7.33;3.43;;;;;;;;;;4974701;28;20424;-72
2023/08/18 09:57:52;;;;;;;5.90;3.07;;;;;;;;;;4976558;28;20467;-72
2023/08/18 10:00:19;;;;;;;6.50;3.27;;;;;;;;;;4975000;28;20516;-72
2023/08/18 10:02:47;;;;;;;8.30;3.87;;;;;;;;;;4975225;28;20412;-71
2023/08/18 10:05:14;;;;;;;7.83;4.10;;;;;;;;;;4975283;28;20955;-72
2023/08/18 10:07:40;;;;;;;9.23;3.50;;;;;;;;;;4975227;28;20875;-72
2023/08/18 10:10:07;;;;;;;5.23;2.90;;;;;;;;;;4975341;28;20412;-72
2023/08/18 10:12:33;;;;;;;6.10;3.33;;;;;;;;;;4974104;28;20423;-72
2023/08/18 10:14:59;;;;;;;6.27;3.53;;;;;;;;;;4975154;28;20747;-72
2023/08/18 10:17:26;;;;;;;5.53;3.07;;;;;;;;;;4974294;28;20493;-72
2023/08/18 10:19:53;;;;;;;5.47;3.40;;;;;;;;;;4976053;28;20494;-72
2023/08/18 10:22:19;;;;;;;6.90;3.27;;;;;;;;;;4975128;28;20894;-72
2023/08/18 10:24:48;;;;;;;6.70;4.30;;;;;;;;;;4974616;28;20423;-71
2023/08/18 10:27:30;;;;;;;10.63;3.70;;;;;;;;;;4974777;28;20439;-74
2023/08/18 10:30:16;;;;;;;5.13;3.27;;;;;;;;;;4974432;28;20428;-72
2023/08/18 10:32:42;;;;;;;6.63;3.00;;;;;;;;;;4963960;28;20459;-71
2023/08/18 10:35:25;;;;;;;7.97;3.27;;;;;;;;;;4974322;28;20408;-72
2023/08/18 10:37:51;;;;;;;7.50;2.93;;;;;;;;;;4974603;28;20522;-72
2023/08/18 10:40:46;;;;;;;6.60;3.60;;;;;;;;;;4975258;28;20416;-72
2023/08/18 10:43:14;;;;;;;2.73;2.40;;;;;;;;;;4962867;28;20220;-71
2023/08/18 10:45:40;;;;;;;7.83;3.20;;;;;;;;;;4973412;28;20984;-72
2023/08/18 10:48:07;;;;;;;7.70;3.50;;;;;;;;;;4973113;28;20503;-72
2023/08/18 10:50:37;;;;;;;7.80;3.20;;;;;;;;;;4973287;28;20808;-73
2023/08/18 10:53:04;;;;;;;8.20;3.27;;;;;;;;;;4973461;28;20489;-73
2023/08/18 10:55:30;;;;;;;7.13;2.90;;;;;;;;;;4973166;28;20481;-72
2023/08/18 10:57:56;;;;;;;4.30;3.13;;;;;;;;;;4973133;28;20514;-75
2023/08/18 11:00:23;;;;;;;6.80;3.00;;;;;;;;;;5256283;23;20503;-69
2023/08/18 11:02:49;;;;;;;9.40;3.30;;;;;;;;;;4974624;28;20408;-69
2023/08/18 11:05:17;;;;;;;5.47;3.30;;;;;;;;;;4975189;28;20415;-70
2023/08/18 11:07:44;;;;;;;6.13;3.10;;;;;;;;;;4976227;28;20443;-70
2023/08/18 11:10:16;;;;;;;5.03;2.90;;;;;;;;;;4973523;28;20945;-70
2023/08/18 11:12:42;;;;;;;5.57;3.23;;;;;;;;;;4975574;28;20462;-69
2023/08/18 11:15:09;;;;;;;9.73;3.17;;;;;;;;;;4975562;28;20416;-70
2023/08/18 11:17:35;;;;;;;7.97;3.10;;;;;;;;;;4974246;28;20463;-70
2023/08/18 11:20:01;;;;;;;5.17;2.93;;;;;;;;;;4974601;28;20479;-69
2023/08/18 11:22:28;;;;;;;7.20;3.43;;;;;;;;;;4973830;28;20408;-69
2023/08/18 11:24:54;;;;;;;4.50;3.10;;;;;;;;;;4973448;28;20412;-69
2023/08/18 11:27:20;;;;;;;4.10;2.93;;;;;;;;;;4973971;28;20416;-69
2023/08/18 11:29:47;;;;;;;5.80;2.80;;;;;;;;;;4972702;28;20486;-69
2023/08/18 11:32:13;;;;;;;5.17;3.07;;;;;;;;;;4973567;28;20425;-70
2023/08/18 11:34:39;;;;;;;4.47;2.80;;;;;;;;;;4974086;28;20416;-69
2023/08/18 11:37:10;;;;;;;8.03;2.93;;;;;;;;;;4973865;28;20818;-69
2023/08/18 11:39:37;;;;;;;7.57;3.90;;;;;;;;;;4973028;28;20968;-69
2023/08/18 11:42:04;;;;;;;4.17;2.87;;;;;;;;;;4973695;28;20442;-70
2023/08/18 11:44:34;;;;;;;5.63;3.00;;;;;;;;;;4973464;28;20821;-71
2023/08/18 11:47:02;;;;;;;7.60;3.30;;;;;;;;;;4972855;28;20420;-71
2023/08/18 11:49:28;;;;;;;5.40;3.27;;;;;;;;;;4987482;28;20999;-71
2023/08/18 11:52:03;;;;;;;5.27;2.77;;;;;;;;;;4972810;28;20407;-70
2023/08/18 11:54:31;;;;;;;7.17;2.70;;;;;;;;;;4972769;28;20454;-71
2023/08/18 11:56:58;;;;;;;4.30;3.10;;;;;;;;;;4972803;28;20834;-71
2023/08/18 11:59:24;;;;;;;7.60;3.40;;;;;;;;;;4972352;28;20462;-72
2023/08/18 12:01:57;;;;;;;6.40;3.03;;;;;;;;;;4972914;28;20404;-72
2023/08/18 12:04:33;;;;;;;6.17;3.67;;;;;;;;;;4972762;28;20416;-71
2023/08/18 12:06:59;;;;;;;3.20;2.73;;;;;;;;;;4973124;28;20846;-72
2023/08/18 12:09:25;;;;;;;7.07;2.83;;;;;;;;;;4971951;28;20432;-71
2023/08/18 12:11:51;;;;;;;4.80;3.03;;;;;;;;;;4972439;28;20420;-71
2023/08/18 12:14:18;;;;;;;9.93;3.13;;;;;;;;;;4972633;28;20408;-71
2023/08/18 12:16:44;;;;;;;4.27;2.90;;;;;;;;;;4972336;28;20783;-71
2023/08/18 12:19:11;;;;;;;3.60;2.70;;;;;;;;;;4972126;28;20471;-71
2023/08/18 12:21:37;;;;;;;5.20;3.07;;;;;;;;;;4972462;28;20420;-71
2023/08/18 12:24:04;;;;;;;4.50;2.43;;;;;;;;;;4972065;28;20501;-71
2023/08/18 12:26:30;;;;;;;8.27;3.13;;;;;;;;;;4971991;28;20455;-71
2023/08/18 12:28:56;;;;;;;5.77;2.30;;;;;;;;;;4987096;28;20436;-72
2023/08/18 12:31:24;;;;;;;3.70;2.60;;;;;;;;;;4972470;28;20416;-71
2023/08/18 12:33:53;;;;;;;3.73;2.73;;;;;;;;;;4972233;28;20483;-71
2023/08/18 12:36:19;;;;;;;7.40;3.10;;;;;;;;;;4972529;28;20916;-71
2023/08/18 12:38:45;;;;;;;7.90;3.27;;;;;;;;;;4971830;28;20872;-72
2023/08/18 12:41:12;;;;;;;4.53;2.80;;;;;;;;;;4974391;28;20423;-72
2023/08/18 12:43:38;;;;;;;4.63;2.37;;;;;;;;;;4976271;28;20418;-71
2023/08/18 12:46:03;;;;;;;8.43;2.60;;;;;;;;;;4975761;28;20729;-71
2023/08/18 12:48:29;;;;;;;3.90;2.60;;;;;;;;;;4975601;28;20419;-71
2023/08/18 12:50:55;;;;;;;3.70;2.73;;;;;;;;;;4975756;28;20416;-70
2023/08/18 12:53:21;;;;;;;6.43;2.80;;;;;;;;;;4976002;28;20267;-71
2023/08/18 12:55:48;;;;;;;7.10;3.27;;;;;;;;;;4975839;28;20495;-71
2023/08/18 12:58:14;;;;;;;8.33;2.93;;;;;;;;;;4975303;28;20459;-71
2023/08/18 13:00:40;;;;;;;6.80;2.80;;;;;;;;;;4975531;28;20438;-71
2023/08/18 13:03:06;;;;;;;5.67;3.20;;;;;;;;;;4975388;28;20178;-71
2023/08/18 13:05:32;;;;;;;7.20;3.10;;;;;;;;;;4975330;28;20420;-70
2023/08/18 13:07:58;;;;;;;6.70;2.90;;;;;;;;;;4990137;28;20430;-71
2023/08/18 13:10:24;;;;;;;6.60;3.03;;;;;;;;;;4975492;28;20443;-70
2023/08/18 13:12:50;;;;;;;11.37;3.33;;;;;;;;;;4975885;28;20416;-70
2023/08/18 13:15:16;;;;;;;10.70;3.00;;;;;;;;;;4990723;28;20467;-71
2023/08/18 13:17:41;;;;;;;6.43;3.03;;;;;;;;;;4975852;28;20562;-70
2023/08/18 13:20:08;;;;;;;9.80;3.27;;;;;;;;;;4974937;28;20793;-71
2023/08/18 13:22:37;;;;;;;9.50;3.20;;;;;;;;;;4975197;28;20463;-71
2023/08/18 13:25:10;;;;;;;5.43;2.83;;;;;;;;;;4975079;28;20944;-70
2023/08/18 13:27:36;;;;;;;5.87;3.20;;;;;;;;;;4975040;28;20439;-70
2023/08/18 13:30:02;;;;;;;9.73;3.37;;;;;;;;;;4974879;28;20960;-70
2023/08/18 13:32:28;;;;;;;12.83;3.10;;;;;;;;;;4975036;28;20431;-70
2023/08/18 13:34:54;;;;;;;11.83;3.20;;;;;;;;;;4974955;28;20932;-71
2023/08/18 13:37:20;;;;;;;7.07;3.30;;;;;;;;;;4974658;28;20459;-69
2023/08/18 13:39:46;;;;;;;5.80;3.03;;;;;;;;;;4974920;28;20781;-71
2023/08/18 13:42:12;;;;;;;6.60;2.70;;;;;;;;;;4974702;28;20769;-71
2023/08/18 13:44:38;;;;;;;5.10;2.97;;;;;;;;;;4974697;28;20443;-71
2023/08/18 13:47:04;;;;;;;9.43;3.17;;;;;;;;;;4974899;28;20404;-70
2023/08/18 13:49:30;;;;;;;6.97;2.90;;;;;;;;;;4974502;28;20434;-69
2023/08/18 13:51:56;;;;;;;7.00;3.03;;;;;;;;;;4974463;28;20494;-70
2023/08/18 13:54:22;;;;;;;8.70;2.67;;;;;;;;;;4975006;28;20412;-69
2023/08/18 13:56:48;;;;;;;8.13;3.10;;;;;;;;;;4974609;28;20404;-69
2023/08/18 13:59:14;;;;;;;4.90;2.77;;;;;;;;;;4973987;28;20845;-69
2023/08/18 14:01:40;;;;;;;10.40;3.13;;;;;;;;;;4974574;28;20404;-68
2023/08/18 14:04:06;;;;;;;4.93;2.73;;;;;;;;;;4974208;28;20769;-70
2023/08/18 14:06:32;;;;;;;9.30;3.47;;;;;;;;;;4974069;28;20474;-70
2023/08/18 14:09:00;;;;;;;9.50;3.60;;;;;;;;;;4974047;28;20439;-69
2023/08/18 14:11:26;;;;;;;11.23;3.30;;;;;;;;;;4974049;28;20408;-68
2023/08/18 14:13:52;;;;;;;4.77;3.00;;;;;;;;;;4974410;28;20423;-67
2023/08/18 14:16:18;;;;;;;8.63;2.70;;;;;;;;;;4974239;28;20827;-68
2023/08/18 14:18:44;;;;;;;9.63;3.07;;;;;;;;;;4973792;28;20988;-69
2023/08/18 14:21:10;;;;;;;6.40;2.93;;;;;;;;;;4974052;28;20710;-68
2023/08/18 14:23:36;;;;;;;3.50;2.67;;;;;;;;;;4974213;28;20419;-68
2023/08/18 14:26:03;;;;;;;5.03;2.80;;;;;;;;;;4974101;28;20415;-68
2023/08/18 14:28:29;;;;;;;3.93;2.87;;;;;;;;;;4974155;28;20498;-69
2023/08/18 14:30:55;;;;;;;6.90;2.73;;;;;;;;;;4974084;28;20474;-69
2023/08/18 14:33:21;;;;;;;5.83;2.97;;;;;;;;;;4974020;28;20788;-69
2023/08/18 14:35:47;;;;;;;9.23;2.97;;;;;;;;;;4974138;28;20416;-69
2023/08/18 14:38:13;;;;;;;7.47;3.67;;;;;;;;;;4973777;28;20872;-70
2023/08/18 14:40:39;;;;;;;6.47;3.07;;;;;;;;;;4974459;28;20546;-71
2023/08/18 14:43:05;;;;;;;10.40;3.40;;;;;;;;;;4973820;28;20446;-69
2023/08/18 14:45:31;;;;;;;8.90;3.03;;;;;;;;;;4973670;28;20412;-70
2023/08/18 14:47:57;;;;;;;7.50;2.90;;;;;;;;;;4973523;28;20812;-70
2023/08/18 14:50:23;;;;;;;10.50;3.23;;;;;;;;;;4973671;28;20435;-69
2023/08/18 14:52:50;;;;;;;10.30;3.87;;;;;;;;;;4973678;28;20522;-71
2023/08/18 14:55:16;;;;;;;5.83;3.00;;;;;;;;;;4973439;28;20474;-67
2023/08/18 14:57:42;;;;;;;4.60;2.70;;;;;;;;;;4973421;28;20558;-67
2023/08/18 15:00:09;;;;;;;7.17;3.03;;;;;;;;;;4973005;28;20503;-67
2023/08/18 15:02:35;;;;;;;6.23;3.20;;;;;;;;;;4973491;28;20543;-68
2023/08/18 15:05:02;;;;;;;4.00;2.83;;;;;;;;;;4973143;28;20411;-71
2023/08/18 15:07:27;;;;;;;6.40;3.87;;;;;;;;;;4973408;28;21024;-72
2023/08/18 15:09:53;;;;;;;6.57;2.80;;;;;;;;;;4973168;28;20542;-69
2023/08/18 15:12:20;;;;;;;5.17;3.40;;;;;;;;;;4973419;28;20427;-69
2023/08/18 15:14:46;;;;;;;11.47;2.77;;;;;;;;;;4973302;28;20419;-69
2023/08/18 15:17:12;;;;;;;9.43;3.37;;;;;;;;;;4973236;28;20420;-68
2023/08/18 15:19:38;;;;;;;8.33;2.93;;;;;;;;;;4973033;28;20517;-69
2023/08/18 15:22:04;;;;;;;6.30;3.13;;;;;;;;;;4973069;28;20451;-69
2023/08/18 15:24:30;;;;;;;6.87;3.30;;;;;;;;;;4973241;28;20789;-68
2023/08/18 15:26:56;;;;;;;11.60;3.13;;;;;;;;;;4973111;28;20434;-69
2023/08/18 15:29:22;;;;;;;7.83;3.03;;;;;;;;;;4972819;28;20436;-69
2023/08/18 15:31:48;;;;;;;7.70;3.20;;;;;;;;;;4973163;28;20415;-70
2023/08/18 15:34:15;;;;;;;6.60;2.87;;;;;;;;;;4973234;28;20416;-71
2023/08/18 15:36:40;;;;;;;10.53;2.87;;;;;;;;;;4972870;28;20898;-69
2023/08/18 15:39:06;;;;;;;5.37;3.70;;;;;;;;;;4972674;28;20549;-70
2023/08/18 15:41:34;;;;;;;5.80;3.17;;;;;;;;;;4973520;28;20940;-70
2023/08/18 15:44:00;;;;;;;8.10;3.43;;;;;;;;;;4973465;28;20900;-69
2023/08/18 15:46:26;;;;;;;4.23;2.90;;;;;;;;;;4973324;28;20494;-69
2023/08/18 15:48:52;;;;;;;12.10;4.40;;;;;;;;;;4973105;28;20443;-68
2023/08/18 15:51:18;;;;;;;13.40;3.10;;;;;;;;;;4973306;28;20408;-69
2023/08/18 15:53:45;;;;;;;9.43;3.67;;;;;;;;;;4973377;28;20499;-70
2023/08/18 15:56:12;;;;;;;4.27;3.67;;;;;;;;;;4973052;28;20430;-69
2023/08/18 15:58:38;;;;;;;3.93;3.30;;;;;;;;;;4972719;28;20464;-69
2023/08/18 16:01:04;;;;;;;5.63;2.90;;;;;;;;;;4973071;28;20976;-69
2023/08/18 16:03:30;;;;;;;6.23;2.93;;;;;;;;;;4973153;28;20860;-69
2023/08/18 16:05:57;;;;;;;5.97;3.10;;;;;;;;;;4973221;28;20443;-67
2023/08/18 16:08:23;;;;;;;9.10;3.20;;;;;;;;;;4972920;28;20410;-69
2023/08/18 16:10:49;;;;;;;5.07;3.53;;;;;;;;;;4973020;28;20415;-70
2023/08/18 16:13:15;;;;;;;4.40;3.17;;;;;;;;;;4973235;28;20443;-68
2023/08/18 16:15:42;;;;;;;5.17;3.10;;;;;;;;;;4975746;28;20415;-68
2023/08/18 16:18:08;;;;;;;10.10;3.33;;;;;;;;;;4976742;28;20513;-71
2023/08/18 16:20:34;;;;;;;10.30;3.40;;;;;;;;;;4976704;28;20571;-69
2023/08/18 16:23:00;;;;;;;4.17;2.80;;;;;;;;;;4976804;28;20412;-68
2023/08/18 16:25:26;;;;;;;5.40;3.07;;;;;;;;;;4976708;28;20415;-69
2023/08/18 16:27:52;;;;;;;6.03;3.40;;;;;;;;;;4976622;28;20473;-69
2023/08/18 16:30:18;;;;;;;4.43;2.90;;;;;;;;;;4976626;28;20438;-68
2023/08/18 16:32:44;;;;;;;5.27;3.33;;;;;;;;;;4976347;28;20506;-67
2023/08/18 16:35:11;;;;;;;7.30;3.10;;;;;;;;;;4976466;28;20407;-68
2023/08/18 16:37:37;;;;;;;9.70;3.57;;;;;;;;;;4976260;28;20466;-68
2023/08/18 16:40:03;;;;;;;6.50;3.80;;;;;;;;;;4976218;28;20456;-68
2023/08/18 16:42:30;;;;;;;7.87;3.80;;;;;;;;;;4976538;28;20819;-68
2023/08/18 16:44:56;;;;;;;5.07;3.30;;;;;;;;;;4976296;28;20409;-68
2023/08/18 16:47:22;;;;;;;10.00;3.37;;;;;;;;;;4976312;28;20407;-68
2023/08/18 16:49:48;;;;;;;8.50;3.50;;;;;;;;;;4976004;28;20431;-68
2023/08/18 16:52:14;;;;;;;6.30;3.67;;;;;;;;;;4976313;28;20408;-68
2023/08/18 16:54:40;;;;;;;11.07;3.57;;;;;;;;;;4976371;28;20408;-68
2023/08/18 16:57:06;;;;;;;4.90;2.93;;;;;;;;;;4976020;28;20412;-67
2023/08/18 16:59:33;;;;;;;5.57;3.70;;;;;;;;;;4994285;23;20502;-72
2023/08/18 17:01:59;;;;;;;5.93;3.40;;;;;;;;;;4956955;28;20408;-76
2023/08/18 17:04:26;;;;;;;7.07;3.70;;;;;;;;;;4957127;29;20411;-76
2023/08/18 17:06:52;;;;;;;8.47;3.17;;;;;;;;;;4957124;28;20756;-74
2023/08/18 17:09:18;;;;;;;4.40;2.77;;;;;;;;;;4956626;28;20441;-72
2023/08/18 17:11:44;;;;;;;5.97;3.10;;;;;;;;;;4957129;28;20421;-75
2023/08/18 17:14:10;;;;;;;8.90;3.43;;;;;;;;;;4957137;28;20413;-76
2023/08/18 17:16:36;;;;;;;8.17;3.70;;;;;;;;;;4956734;28;20928;-74
2023/08/18 17:19:02;;;;;;;12.77;4.23;;;;;;;;;;4956881;28;20460;-75
2023/08/18 17:21:29;;;;;;;6.60;3.67;;;;;;;;;;4971414;28;20452;-75
2023/08/18 17:23:55;;;;;;;8.40;3.53;;;;;;;;;;4956472;28;20419;-76
2023/08/18 17:26:24;;;;;;;5.10;3.43;;;;;;;;;;4970743;28;20416;-75
2023/08/18 17:28:50;;;;;;;6.00;3.10;;;;;;;;;;4970649;28;20515;-76
2023/08/18 17:31:16;;;;;;;7.97;4.10;;;;;;;;;;4970704;28;20532;-75
2023/08/18 17:33:42;;;;;;;5.00;3.20;;;;;;;;;;4956279;28;20899;-75
2023/08/18 17:36:09;;;;;;;5.03;3.20;;;;;;;;;;4956376;28;20416;-75
2023/08/18 17:38:35;;;;;;;7.13;3.60;;;;;;;;;;4970496;28;20480;-75
2023/08/18 17:41:01;;;;;;;6.57;3.93;;;;;;;;;;4956484;28;20436;-75
2023/08/18 17:43:27;;;;;;;7.07;3.50;;;;;;;;;;4971443;28;20421;-75
2023/08/18 17:45:54;;;;;;;7.40;4.30;;;;;;;;;;4955574;28;20401;-75
2023/08/18 17:48:20;;;;;;;7.23;3.57;;;;;;;;;;4956035;28;20501;-75
2023/08/18 17:50:50;;;;;;;7.50;3.60;;;;;;;;;;4956046;28;20441;-75
2023/08/18 17:53:16;;;;;;;6.53;3.87;;;;;;;;;;4956233;28;20412;-76
2023/08/18 17:55:42;;;;;;;9.70;4.10;;;;;;;;;;4956270;28;20408;-74
2023/08/18 17:58:08;;;;;;;7.80;4.40;;;;;;;;;;4970504;28;20468;-75
2023/08/18 18:00:34;;;;;;;10.23;5.10;;;;;;;;;;4970110;28;20483;-75
2023/08/18 18:03:01;;;;;;;8.43;4.50;;;;;;;;;;4956023;28;20416;-76
2023/08/18 18:05:27;;;;;;;6.97;4.00;;;;;;;;;;4956110;28;20420;-75
2023/08/18 18:07:53;;;;;;;11.30;4.73;;;;;;;;;;4956000;28;20417;-76
2023/08/18 18:10:21;;;;;;;8.30;4.00;;;;;;;;;;4955761;28;20436;-75
2023/08/18 18:12:47;;;;;;;9.87;3.77;;;;;;;;;;4955458;28;20448;-75
2023/08/18 18:15:13;;;;;;;7.80;5.33;;;;;;;;;;4965861;28;20409;-75
2023/08/18 18:17:39;;;;;;;6.43;3.90;;;;;;;;;;4970797;28;20512;-75
2023/08/18 18:20:06;;;;;;;9.50;4.73;;;;;;;;;;4970204;28;20460;-76
2023/08/18 18:22:32;;;;;;;6.67;4.30;;;;;;;;;;4960416;28;20416;-75
2023/08/18 18:24:58;;;;;;;9.73;4.90;;;;;;;;;;4956439;28;20746;-74
2023/08/18 18:27:25;;;;;;;12.33;5.33;;;;;;;;;;4956008;28;20939;-74
2023/08/18 18:29:51;;;;;;;7.50;4.40;;;;;;;;;;4955672;28;20527;-74
2023/08/18 18:32:17;;;;;;;10.73;5.00;;;;;;;;;;4955999;28;21092;-75
2023/08/18 18:34:43;;;;;;;8.23;5.27;;;;;;;;;;4970728;28;20425;-75
2023/08/18 18:37:09;;;;;;;14.30;4.30;;;;;;;;;;4955462;28;20451;-75
2023/08/18 18:39:35;;;;;;;7.90;4.50;;;;;;;;;;4954360;28;20484;-75
2023/08/18 18:42:01;;;;;;;7.73;4.00;;;;;;;;;;4970392;28;20412;-75
2023/08/18 18:44:27;;;;;;;8.77;4.53;;;;;;;;;;4954839;28;21126;-76
2023/08/18 18:46:53;;;;;;;11.10;5.33;;;;;;;;;;4955180;28;20405;-75
2023/08/18 18:49:19;;;;;;;7.80;5.37;;;;;;;;;;4954931;28;20435;-76
2023/08/18 18:51:48;;;;;;;13.50;6.30;;;;;;;;;;4969831;28;20416;-77
2023/08/18 18:54:14;;;;;;;10.00;5.17;;;;;;;;;;4955288;28;20416;-76
2023/08/18 18:56:41;;;;;;;13.53;7.90;;;;;;;;;;4955143;28;20420;-73
2023/08/18 18:59:07;;;;;;;11.93;6.83;;;;;;;;;;4969601;28;20556;-76
2023/08/18 19:01:33;;;;;;;15.43;6.80;;;;;;;;;;4955353;28;20445;-76
2023/08/18 19:03:59;;;;;;;18.90;9.40;;;;;;;;;;4955378;28;20413;-74
2023/08/18 19:06:26;;;;;;;19.00;9.33;;;;;;;;;;4955813;28;20413;-76
2023/08/18 19:08:52;;;;;;;11.80;6.57;;;;;;;;;;4955846;28;20428;-75
2023/08/18 19:11:18;;;;;;;11.60;5.00;;;;;;;;;;4955644;28;20440;-76
2023/08/18 19:13:44;;;;;;;10.77;5.30;;;;;;;;;;4954920;28;20474;-76
2023/08/18 19:16:10;;;;;;;8.40;4.43;;;;;;;;;;4969877;28;20439;-76
2023/08/18 19:18:36;;;;;;;11.93;3.73;;;;;;;;;;4954586;28;20542;-76